createdAt,value
2023-01-23T00:01:14.410Z,4.10
2023-01-23T00:03:41.573Z,3.70
2023-01-23T00:06:12.454Z,4.10
2023-01-23T00:08:40.327Z,3.87
2023-01-23T00:11:10.614Z,4.17
2023-01-23T00:13:37.867Z,4.10
2023-01-23T00:16:09.359Z,4.10
2023-01-23T00:18:36.578Z,3.67
2023-01-23T00:21:08.299Z,4.50
2023-01-23T00:23:35.413Z,4.03
2023-01-23T00:26:07.091Z,4.30
2023-01-23T00:28:34.622Z,4.80
2023-01-23T00:31:13.802Z,4.97
2023-01-23T00:33:42.380Z,3.67
2023-01-23T00:36:10.288Z,5.07
2023-01-23T00:38:37.346Z,5.50
2023-01-23T00:41:04.472Z,5.27
2023-01-23T00:43:32.749Z,5.10
2023-01-23T00:46:00.417Z,4.80
2023-01-23T00:48:27.592Z,5.13
2023-01-23T00:50:54.852Z,5.53
2023-01-23T00:53:22.170Z,6.27
2023-01-23T00:55:49.271Z,5.73
2023-01-23T00:58:16.407Z,5.73
2023-01-23T01:00:43.513Z,5.93
2023-01-23T01:03:10.870Z,6.47
2023-01-23T01:05:38.096Z,6.00
2023-01-23T01:08:05.463Z,5.67
2023-01-23T01:10:32.961Z,5.33
2023-01-23T01:13:01.993Z,5.17
2023-01-23T01:15:29.684Z,5.07
2023-01-23T01:17:57.124Z,5.27
2023-01-23T01:20:26.009Z,4.73
2023-01-23T01:22:54.162Z,4.53
2023-01-23T01:25:21.625Z,5.10
2023-01-23T01:27:48.774Z,4.60
2023-01-23T01:30:17.630Z,5.10
2023-01-23T01:32:45.010Z,5.33
2023-01-23T01:35:14.290Z,5.50
2023-01-23T01:37:42.138Z,5.00
2023-01-23T01:40:13.650Z,4.60
2023-01-23T01:42:42.636Z,3.33
2023-01-23T01:45:47.141Z,4.17
2023-01-23T01:48:14.960Z,3.50
2023-01-23T01:50:42.297Z,3.73
2023-01-23T01:53:09.849Z,4.27
2023-01-23T01:55:37.315Z,4.47
2023-01-23T01:58:04.459Z,4.83
2023-01-23T02:00:31.602Z,4.80
2023-01-23T02:03:01.383Z,4.53
2023-01-23T02:05:35.462Z,4.73
2023-01-23T02:08:33.848Z,4.40
2023-01-23T02:11:03.331Z,4.87
2023-01-23T02:13:39.253Z,4.47
2023-01-23T02:16:15.055Z,5.40
2023-01-23T02:18:47.276Z,5.73
2023-01-23T02:21:19.351Z,4.63
2023-01-23T02:24:01.629Z,4.47
2023-01-23T02:26:36.674Z,4.53
2023-01-23T02:29:04.601Z,4.37
2023-01-23T02:31:35.491Z,4.57
2023-01-23T02:34:02.672Z,4.43
2023-01-23T02:36:32.757Z,4.20
2023-01-23T02:39:08.027Z,4.83
2023-01-23T02:41:41.990Z,4.40
2023-01-23T02:44:26.667Z,4.47
2023-01-23T02:47:00.357Z,4.77
2023-01-23T02:49:28.249Z,4.23
2023-01-23T02:51:56.225Z,5.07
2023-01-23T02:54:24.356Z,5.10
2023-01-23T02:56:51.801Z,5.03
2023-01-23T02:59:40.081Z,4.90
2023-01-23T03:02:08.322Z,4.40
2023-01-23T03:04:35.409Z,4.57
2023-01-23T03:07:02.559Z,5.10
2023-01-23T03:09:29.925Z,4.80
2023-01-23T03:11:57.092Z,4.73
2023-01-23T03:14:24.399Z,4.60
2023-01-23T03:16:54.087Z,4.67
2023-01-23T03:19:24.592Z,4.17
2023-01-23T03:21:51.929Z,4.43
2023-01-23T03:24:19.839Z,4.50
2023-01-23T03:26:48.111Z,5.10
2023-01-23T03:29:42.008Z,4.97
2023-01-23T03:32:12.233Z,4.73
2023-01-23T03:34:41.444Z,4.27
2023-01-23T03:37:09.186Z,5.00
2023-01-23T03:39:56.719Z,5.97
2023-01-23T03:42:25.087Z,5.47
2023-01-23T03:44:53.678Z,6.27
2023-01-23T03:47:26.230Z,4.63
2023-01-23T03:49:54.790Z,5.17
2023-01-23T03:52:21.842Z,5.40
2023-01-23T03:54:48.943Z,5.20
2023-01-23T03:57:16.041Z,6.53
2023-01-23T04:00:06.441Z,6.13
2023-01-23T04:02:46.059Z,6.57
2023-01-23T04:05:14.841Z,6.13
2023-01-23T04:07:41.945Z,6.67
2023-01-23T04:10:10.754Z,6.43
2023-01-23T04:12:39.637Z,6.90
2023-01-23T04:15:07.991Z,6.37
2023-01-23T04:17:35.086Z,6.43
2023-01-23T04:20:03.487Z,5.73
2023-01-23T04:22:31.408Z,6.37
2023-01-23T04:24:58.493Z,5.77
2023-01-23T04:27:25.634Z,5.40
2023-01-23T04:29:55.018Z,5.67
2023-01-23T04:32:22.152Z,5.93
2023-01-23T04:34:49.255Z,6.97
2023-01-23T04:37:16.663Z,5.20
2023-01-23T04:39:44.078Z,6.03
2023-01-23T04:42:11.321Z,5.47
2023-01-23T04:44:51.684Z,5.50
2023-01-23T04:47:37.758Z,5.70
2023-01-23T04:50:09.503Z,5.27
2023-01-23T04:52:36.606Z,5.80
2023-01-23T04:55:04.043Z,5.17
2023-01-23T04:57:31.433Z,5.40
2023-01-23T05:00:09.355Z,4.90
2023-01-23T05:02:37.281Z,6.30
2023-01-23T05:05:04.770Z,5.80
2023-01-23T05:07:31.866Z,6.00
2023-01-23T05:10:12.095Z,5.40
2023-01-23T05:12:39.679Z,5.40
2023-01-23T05:15:07.620Z,4.77
2023-01-23T05:17:37.908Z,6.37
2023-01-23T05:20:06.073Z,4.67
2023-01-23T05:22:33.622Z,4.97
2023-01-23T05:25:01.127Z,5.50
2023-01-23T05:27:30.167Z,5.67
2023-01-23T05:29:58.384Z,4.73
2023-01-23T05:32:27.289Z,4.23
2023-01-23T05:34:58.891Z,5.17
2023-01-23T05:37:29.515Z,4.67
2023-01-23T05:40:00.861Z,4.50
2023-01-23T05:42:47.850Z,4.47
2023-01-23T05:45:44.349Z,4.60
2023-01-23T05:48:20.955Z,4.30
2023-01-23T05:50:48.067Z,3.57
2023-01-23T05:53:15.304Z,4.70
2023-01-23T05:55:42.559Z,4.17
2023-01-23T05:58:13.858Z,6.75
2023-01-23T06:01:05.700Z,5.40
2023-01-23T06:03:52.831Z,4.50
2023-01-23T06:06:33.268Z,4.73
2023-01-23T06:09:00.675Z,3.90
2023-01-23T06:11:27.868Z,5.13
2023-01-23T06:13:54.957Z,4.37
2023-01-23T06:16:22.894Z,3.97
2023-01-23T06:18:50.244Z,4.80
2023-01-23T06:21:18.340Z,4.97
2023-01-23T06:23:45.810Z,4.23
2023-01-23T06:26:13.531Z,4.37
2023-01-23T06:28:41.092Z,4.57
2023-01-23T06:31:10.292Z,4.77
2023-01-23T06:33:51.196Z,4.23
2023-01-23T06:36:19.626Z,5.20
2023-01-23T06:38:47.153Z,4.80
2023-01-23T06:41:16.989Z,4.90
2023-01-23T06:43:51.909Z,4.60
2023-01-23T06:46:23.014Z,4.97
2023-01-23T06:48:52.969Z,4.87
2023-01-23T06:51:23.116Z,4.37
2023-01-23T06:53:50.705Z,4.83
2023-01-23T06:56:18.141Z,5.37
2023-01-23T06:58:47.857Z,5.40
2023-01-23T07:01:26.814Z,5.13
2023-01-23T07:04:06.292Z,4.70
2023-01-23T07:06:34.149Z,5.23
2023-01-23T07:09:02.071Z,5.47
2023-01-23T07:11:30.025Z,5.70
2023-01-23T07:13:58.203Z,5.80
2023-01-23T07:16:27.688Z,5.73
2023-01-23T07:18:58.988Z,5.83
2023-01-23T07:21:27.733Z,5.33
2023-01-23T07:23:55.327Z,5.10
2023-01-23T07:26:23.147Z,5.07
2023-01-23T07:28:50.744Z,5.67
2023-01-23T07:31:18.210Z,5.33
2023-01-23T07:33:45.898Z,6.83
2023-01-23T07:36:19.713Z,5.93
2023-01-23T07:38:47.433Z,6.00
2023-01-23T07:41:14.972Z,5.77
2023-01-23T07:43:42.649Z,7.28
2023-01-23T07:46:10.200Z,5.60
2023-01-23T07:48:38.331Z,6.47
2023-01-23T07:51:06.674Z,6.40
2023-01-23T07:53:34.404Z,6.27
2023-01-23T07:56:05.417Z,5.27
2023-01-23T07:58:32.851Z,5.23
2023-01-23T08:01:00.541Z,5.03
2023-01-23T08:03:29.228Z,4.80
2023-01-23T08:05:56.752Z,4.77
2023-01-23T08:08:24.258Z,5.67
2023-01-23T08:10:51.961Z,6.33
2023-01-23T08:13:19.432Z,5.67
2023-01-23T08:15:47.083Z,7.57
2023-01-23T08:18:14.544Z,6.60
2023-01-23T08:20:42.504Z,6.80
2023-01-23T08:23:09.701Z,6.70
2023-01-23T08:25:38.952Z,6.47
2023-01-23T08:28:06.352Z,5.97
2023-01-23T08:30:33.477Z,5.40
2023-01-23T08:33:01.051Z,6.07
2023-01-23T08:35:28.424Z,5.67
2023-01-23T08:37:55.606Z,5.27
2023-01-23T08:40:22.845Z,6.40
2023-01-23T08:42:50.183Z,4.87
2023-01-23T08:45:17.408Z,6.70
2023-01-23T08:47:44.510Z,6.00
2023-01-23T08:50:11.985Z,4.77
2023-01-23T08:52:39.062Z,5.17
2023-01-23T08:55:06.456Z,5.23
2023-01-23T08:57:33.542Z,6.10
2023-01-23T09:00:00.589Z,6.17
2023-01-23T09:02:27.792Z,6.03
2023-01-23T09:04:54.906Z,5.10
2023-01-23T09:07:21.971Z,5.90
2023-01-23T09:09:49.084Z,5.00
2023-01-23T09:12:16.156Z,5.80
2023-01-23T09:14:43.315Z,5.07
2023-01-23T09:17:10.457Z,4.33
2023-01-23T09:19:37.645Z,5.37
2023-01-23T09:22:04.802Z,4.47
2023-01-23T09:24:31.965Z,4.33
2023-01-23T09:26:59.088Z,4.00
2023-01-23T09:29:26.155Z,4.80
2023-01-23T09:31:53.244Z,4.27
2023-01-23T09:34:20.369Z,5.40
2023-01-23T09:36:47.441Z,5.10
2023-01-23T09:39:14.603Z,4.37
2023-01-23T09:41:42.012Z,5.50
2023-01-23T09:44:29.140Z,5.40
2023-01-23T09:47:04.783Z,4.90
2023-01-23T09:49:49.189Z,4.30
2023-01-23T09:52:26.081Z,5.30
2023-01-23T09:55:17.187Z,5.30
2023-01-23T09:57:52.860Z,5.27
2023-01-23T10:00:29.975Z,5.00
2023-01-23T10:02:57.189Z,4.97
2023-01-23T10:05:46.388Z,4.50
2023-01-23T10:08:36.470Z,5.20
2023-01-23T10:11:42.738Z,5.33
2023-01-23T10:14:27.763Z,5.40
2023-01-23T10:16:54.861Z,5.43
2023-01-23T10:19:38.701Z,4.80
2023-01-23T10:22:22.960Z,5.00
2023-01-23T10:24:52.458Z,5.87
2023-01-23T10:27:19.607Z,4.77
2023-01-23T10:29:50.429Z,4.27
2023-01-23T10:32:26.571Z,4.80
2023-01-23T10:35:01.705Z,5.50
2023-01-23T10:37:40.079Z,5.10
2023-01-23T10:40:16.545Z,5.47
2023-01-23T10:42:43.737Z,5.77
2023-01-23T10:45:19.300Z,6.40
2023-01-23T10:47:54.617Z,5.90
2023-01-23T10:50:36.679Z,6.70
2023-01-23T10:53:08.964Z,7.37
2023-01-23T10:55:36.158Z,6.23
2023-01-23T10:58:03.339Z,6.50
2023-01-23T11:00:44.491Z,6.30
2023-01-23T11:03:33.301Z,6.27
2023-01-23T11:06:05.123Z,6.10
2023-01-23T11:08:36.441Z,6.10
2023-01-23T11:11:15.620Z,6.20
2023-01-23T11:13:44.571Z,6.80
2023-01-23T11:16:30.723Z,7.43
2023-01-23T11:19:07.942Z,5.50
2023-01-23T11:21:50.795Z,6.37
2023-01-23T11:24:40.885Z,6.50
2023-01-23T11:27:27.940Z,5.70
2023-01-23T11:30:26.862Z,5.40
2023-01-23T11:33:10.220Z,6.20
2023-01-23T11:35:51.234Z,6.97
2023-01-23T11:38:30.504Z,6.60
2023-01-23T11:40:57.885Z,6.70
2023-01-23T11:43:25.037Z,6.67
2023-01-23T11:46:10.845Z,7.13
2023-01-23T11:48:52.335Z,6.60
2023-01-23T11:51:37.680Z,7.57
2023-01-23T11:54:35.956Z,6.03
2023-01-23T11:57:11.803Z,6.47
2023-01-23T12:00:10.822Z,5.70
2023-01-23T12:02:58.586Z,5.50
2023-01-23T12:06:18.877Z,5.83
2023-01-23T12:09:01.280Z,5.50
2023-01-23T12:11:45.768Z,6.90
2023-01-23T12:14:30.818Z,7.07
2023-01-23T12:16:57.887Z,7.47
2023-01-23T12:20:02.685Z,6.13
2023-01-23T12:22:29.745Z,6.23
2023-01-23T12:25:16.137Z,5.90
2023-01-23T12:27:45.138Z,6.83
2023-01-23T12:30:12.197Z,6.60
2023-01-23T12:33:07.783Z,5.93
2023-01-23T12:35:56.751Z,7.33
2023-01-23T12:38:53.175Z,6.47
2023-01-23T12:41:46.174Z,5.90
2023-01-23T12:44:24.661Z,6.40
2023-01-23T12:47:16.226Z,7.20
2023-01-23T12:49:57.106Z,6.30
2023-01-23T12:52:33.041Z,6.43
2023-01-23T12:55:24.603Z,6.47
2023-01-23T12:58:00.340Z,6.50
2023-01-23T13:00:45.689Z,5.67
2023-01-23T13:03:37.460Z,6.70
2023-01-23T13:06:24.322Z,6.37
2023-01-23T13:09:12.095Z,6.20
2023-01-23T13:12:08.668Z,6.27
2023-01-23T13:15:00.704Z,5.77
2023-01-23T13:17:43.871Z,6.60
2023-01-23T13:20:48.143Z,6.23
2023-01-23T13:23:25.454Z,5.97
2023-01-23T13:26:19.316Z,6.43
2023-01-23T13:28:54.317Z,5.97
2023-01-23T13:31:37.515Z,7.90
2023-01-23T13:34:25.147Z,7.17
2023-01-23T13:36:54.706Z,7.00
2023-01-23T13:39:29.689Z,7.47
2023-01-23T13:42:14.806Z,6.67
2023-01-23T13:45:19.249Z,7.50
2023-01-23T14:22:08.324Z,7.67
2023-01-23T14:24:50.032Z,7.77
2023-01-23T14:27:30.237Z,7.20
2023-01-23T14:30:03.421Z,7.20
2023-01-23T14:32:33.727Z,8.00
2023-01-23T14:35:01.489Z,7.80
2023-01-23T14:37:30.270Z,6.87
2023-01-23T14:40:01.986Z,7.60
2023-01-23T14:42:34.709Z,8.03
2023-01-23T14:45:02.869Z,7.67
2023-01-23T14:47:39.434Z,7.13
2023-01-23T14:50:17.727Z,8.27
2023-01-23T14:52:45.022Z,8.37
2023-01-23T14:55:29.877Z,9.63
2023-01-23T14:57:59.819Z,8.47
2023-01-23T15:00:28.346Z,7.97
2023-01-23T15:02:56.208Z,7.80
2023-01-23T15:05:23.872Z,7.00
2023-01-23T15:08:07.142Z,8.57
2023-01-23T15:10:46.986Z,9.03
2023-01-23T15:13:22.501Z,8.47
2023-01-23T15:15:56.442Z,8.37
2023-01-23T15:18:27.559Z,9.60
2023-01-23T15:20:59.168Z,8.53
2023-01-23T15:23:28.180Z,8.43
2023-01-23T15:26:14.280Z,9.20
2023-01-23T15:29:08.441Z,8.37
2023-01-23T15:31:38.146Z,7.83
2023-01-23T15:34:16.891Z,7.73
2023-01-23T15:36:49.460Z,8.07
2023-01-23T15:39:27.818Z,7.03
2023-01-23T15:42:03.222Z,7.27
2023-01-23T15:44:31.988Z,6.80
2023-01-23T15:47:03.880Z,7.83
2023-01-23T15:49:35.997Z,7.03
2023-01-23T15:52:14.182Z,6.53
2023-01-23T15:54:41.292Z,7.40
2023-01-23T15:57:13.804Z,8.17
2023-01-23T15:59:41.391Z,7.50
2023-01-23T16:02:18.150Z,6.80
2023-01-23T16:04:51.984Z,6.13
2023-01-23T16:07:44.012Z,6.97
2023-01-23T16:10:24.329Z,6.47
2023-01-23T16:12:53.181Z,7.27
2023-01-23T16:15:26.334Z,7.50
2023-01-23T16:17:53.672Z,7.17
2023-01-23T16:20:42.119Z,7.07
2023-01-23T16:23:19.612Z,6.70
2023-01-23T16:25:47.022Z,6.30
2023-01-23T16:28:22.519Z,7.23
2023-01-23T16:30:51.624Z,6.90
2023-01-23T16:33:19.389Z,8.37
2023-01-23T16:35:47.511Z,7.47
2023-01-23T16:38:25.514Z,7.40
2023-01-23T16:40:53.633Z,7.60
2023-01-23T16:43:21.294Z,7.20
2023-01-23T16:45:48.382Z,6.90
2023-01-23T16:48:25.435Z,7.27
2023-01-23T16:51:00.266Z,7.07
2023-01-23T16:53:31.345Z,8.20
2023-01-23T16:56:00.262Z,6.87
2023-01-23T16:58:30.753Z,7.73
2023-01-23T17:01:20.432Z,8.80
2023-01-23T17:03:59.358Z,7.13
2023-01-23T17:06:26.457Z,6.97
2023-01-23T17:08:53.655Z,8.40
2023-01-23T17:11:24.549Z,8.10
2023-01-23T17:14:14.580Z,8.33
2023-01-23T17:16:41.927Z,7.67
2023-01-23T17:19:28.525Z,8.07
2023-01-23T17:21:55.704Z,8.90
2023-01-23T17:24:22.871Z,9.33
2023-01-23T17:26:50.023Z,8.60
2023-01-23T17:29:17.168Z,8.43
2023-01-23T17:31:44.597Z,8.97
2023-01-23T17:34:21.549Z,8.07
2023-01-23T17:36:48.937Z,8.50
2023-01-23T17:39:16.106Z,8.27
2023-01-23T17:41:43.310Z,9.27
2023-01-23T17:44:10.363Z,8.53
2023-01-23T17:46:39.386Z,8.30
2023-01-23T17:49:30.667Z,8.33
2023-01-23T17:52:00.058Z,9.17
2023-01-23T17:54:27.425Z,8.77
2023-01-23T17:56:56.627Z,8.67
2023-01-23T17:59:23.716Z,7.93
2023-01-23T18:01:51.521Z,8.07
2023-01-23T18:04:21.280Z,6.87
2023-01-23T18:06:49.150Z,7.73
2023-01-23T18:09:16.624Z,8.20
2023-01-23T18:11:52.462Z,7.27
2023-01-23T18:14:34.577Z,7.97
2023-01-23T18:17:01.546Z,7.93
2023-01-23T18:19:28.702Z,6.90
2023-01-23T18:21:57.381Z,7.90
2023-01-23T18:24:30.390Z,7.23
2023-01-23T18:27:00.536Z,7.53
2023-01-23T18:29:43.783Z,7.77
2023-01-23T18:32:24.142Z,7.73
2023-01-23T18:35:04.067Z,7.93
2023-01-23T18:38:02.254Z,7.90
2023-01-23T18:40:54.103Z,8.27
2023-01-23T18:43:21.147Z,6.70
2023-01-23T18:45:48.024Z,7.17
2023-01-23T18:48:24.994Z,6.77
2023-01-23T18:51:16.697Z,7.50
2023-01-23T18:53:55.219Z,6.63
2023-01-23T18:56:43.005Z,6.77
2023-01-23T18:59:43.824Z,6.97
2023-01-23T19:02:46.461Z,7.27
2023-01-23T19:05:16.682Z,6.53
2023-01-23T19:07:44.964Z,6.53
2023-01-23T19:10:17.468Z,6.67
2023-01-23T19:13:09.219Z,7.70
2023-01-23T19:16:14.365Z,6.30
2023-01-23T19:18:41.533Z,6.53
2023-01-23T19:21:23.508Z,6.97
2023-01-23T19:24:00.849Z,7.30
2023-01-23T19:26:30.626Z,6.70
2023-01-23T19:28:59.686Z,6.63
2023-01-23T19:31:31.760Z,6.60
2023-01-23T19:33:59.473Z,7.20
2023-01-23T19:36:27.752Z,6.57
2023-01-23T19:39:00.774Z,6.20
2023-01-23T19:41:37.414Z,5.73
2023-01-23T19:44:04.519Z,6.57
2023-01-23T19:46:33.888Z,6.67
2023-01-23T19:49:03.687Z,6.83
2023-01-23T19:51:32.339Z,6.80
2023-01-23T19:53:59.618Z,6.10
2023-01-23T19:56:27.094Z,7.10
2023-01-23T19:58:54.269Z,6.30
2023-01-23T20:01:41.078Z,6.33
2023-01-23T20:04:13.780Z,7.40
2023-01-23T20:06:40.940Z,5.43
2023-01-23T20:09:08.769Z,5.47
2023-01-23T20:11:36.353Z,6.10
2023-01-23T20:14:03.699Z,6.13
2023-01-23T20:16:30.917Z,5.33
2023-01-23T20:18:58.114Z,5.63
2023-01-23T20:21:25.554Z,6.33
2023-01-23T20:23:52.943Z,6.90
2023-01-23T20:26:21.434Z,6.43
2023-01-23T20:28:53.294Z,7.40
2023-01-23T20:31:20.567Z,5.90
2023-01-23T20:33:48.191Z,5.93
2023-01-23T20:36:15.963Z,6.27
2023-01-23T20:38:43.687Z,5.87
2023-01-23T20:41:15.667Z,7.13
2023-01-23T20:43:43.210Z,6.97
2023-01-23T20:46:11.092Z,6.93
2023-01-23T20:48:39.835Z,5.93
2023-01-23T20:51:09.672Z,5.77
2023-01-23T20:53:39.427Z,8.03
2023-01-23T20:56:09.432Z,6.20
2023-01-23T20:58:57.327Z,5.93
2023-01-23T21:01:28.079Z,5.43
2023-01-23T21:03:55.438Z,6.17
2023-01-23T21:06:22.756Z,6.17
2023-01-23T21:08:49.890Z,6.13
2023-01-23T21:11:19.203Z,5.33
2023-01-23T21:13:51.054Z,4.93
2023-01-23T21:16:18.385Z,5.47
2023-01-23T21:18:46.818Z,5.73
2023-01-23T21:21:16.665Z,5.70
2023-01-23T21:23:46.583Z,6.10
2023-01-23T21:26:13.896Z,6.87
2023-01-23T21:28:40.987Z,6.03
2023-01-23T21:31:13.184Z,6.20
2023-01-23T21:33:44.087Z,5.87
2023-01-23T21:36:11.839Z,5.90
2023-01-23T21:38:39.514Z,5.60
2023-01-23T21:41:06.745Z,5.10
2023-01-23T21:43:34.656Z,5.63
2023-01-23T21:46:02.153Z,5.13
2023-01-23T21:48:30.055Z,5.90
2023-01-23T21:51:25.143Z,6.10
2023-01-23T21:53:52.268Z,5.20
2023-01-23T21:56:21.106Z,5.93
2023-01-23T21:58:48.662Z,5.30
2023-01-23T22:01:42.036Z,5.33
2023-01-23T22:04:14.605Z,5.37
2023-01-23T22:06:43.625Z,4.67
2023-01-23T22:09:15.527Z,5.83
2023-01-23T22:11:42.829Z,4.80
2023-01-23T22:14:09.914Z,4.00
2023-01-23T22:16:48.070Z,5.10
2023-01-23T22:19:18.650Z,4.30
2023-01-23T22:21:46.527Z,3.90
2023-01-23T22:24:14.000Z,3.30
2023-01-23T22:26:41.059Z,4.33
2023-01-23T22:29:08.606Z,3.97
2023-01-23T22:31:35.866Z,4.07
2023-01-23T22:34:03.042Z,3.60
2023-01-23T22:36:30.343Z,4.07
2023-01-23T22:38:57.541Z,3.83
2023-01-23T22:41:24.721Z,3.40
2023-01-23T22:43:56.355Z,4.03
2023-01-23T22:46:23.886Z,4.23
2023-01-23T22:48:51.170Z,3.97
2023-01-23T22:51:24.863Z,4.03
2023-01-23T22:53:52.793Z,4.07
2023-01-23T22:56:20.092Z,3.80
2023-01-23T22:58:48.425Z,3.60
2023-01-23T23:01:16.147Z,3.40
2023-01-23T23:03:43.517Z,3.63
2023-01-23T23:06:13.216Z,4.23
2023-01-23T23:08:40.550Z,4.50
2023-01-23T23:11:22.569Z,4.30
2023-01-23T23:13:49.875Z,4.07
2023-01-23T23:16:20.608Z,3.77
2023-01-23T23:18:50.169Z,3.43
2023-01-23T23:21:19.599Z,4.17
2023-01-23T23:23:46.860Z,3.97
2023-01-23T23:26:14.095Z,3.60
2023-01-23T23:28:41.523Z,4.03
2023-01-23T23:31:09.593Z,3.20
2023-01-23T23:33:37.210Z,3.83
2023-01-23T23:36:04.460Z,3.87
2023-01-23T23:38:31.589Z,3.67
2023-01-23T23:41:02.852Z,3.83
2023-01-23T23:43:30.210Z,3.83
2023-01-23T23:45:58.955Z,4.60
2023-01-23T23:48:26.891Z,3.40
2023-01-23T23:50:54.379Z,3.73
2023-01-23T23:53:21.741Z,3.73
2023-01-23T23:55:49.064Z,5.17
2023-01-23T23:58:16.187Z,3.40
